Terminal Aerodrome Forecast
Issued by NWS Boston, MA

Home | Current Version | Previous Version | Text Only | Print | Product List | Glossary On
Versions: 1 2 3 4 5 6 7 8 9 10 11 12 13 14 15 16 17 18 19
000
FTUS41 KBOX 300616 AAA
TAFORH
TAF AMD
KORH 300616Z 3006/3106 04004KT 1/4SM FG VV002
     FM301000 VRB03KT 3/4SM BR BKN008
     FM301500 17004KT P6SM BKN020
     FM310100 18007KT 1 1/2SM BR VCSH BKN020
     FM310300 18006KT 1 1/2SM BR VCSH OVC010=

USA.gov is the U.S. government's official web portal to all federal, state and local government web resources and services.